LFMK/CCF METAR and TAF weather

Enter ICAO airport designator
Station Type Date Time Source
LFMK METAR 2019/02/20 18:00 UTC NOAA

LFMK 201800Z AUTO 09008KT CAVOK 11/06 Q1025 NOSIG


Station Type Date Time Source
LFMK Decoded METAR 2019/02/20 18:00 UTC NOAA

Carcassonne, France (LFMK) 43-13N 002-19E 130M
Feb 20, 2019 - 01:00 PM EST / 2019.02.20 1800 UTC
Wind: from the E (090 degrees) at 9 MPH (8 KT):0
Visibility: greater than 7 mile(s):0
Temperature: 51 F (11 C)
Dew Point: 42 F (6 C)
Relative Humidity: 71%
Pressure (altimeter): 30.27 in. Hg (1025 hPa)
ob: LFMK 201800Z AUTO 09008KT CAVOK 11/06 Q1025 NOSIG
cycle: 18

Station Type Date Time Source
LFMK TAF 2019/02/20 18:06 UTC NOAA

TAF TAF LFMK 201800Z 2018/2115 CNL


Example: see airport list